createdAt,value
2023-05-10T00:00:44.988Z,4.80
2023-05-10T00:03:12.218Z,4.53
2023-05-10T00:05:39.275Z,5.05
2023-05-10T00:08:06.473Z,5.20
2023-05-10T00:10:33.551Z,4.85
2023-05-10T00:13:00.743Z,5.57
2023-05-10T00:15:27.823Z,5.07
2023-05-10T00:17:54.937Z,4.93
2023-05-10T00:20:22.075Z,5.03
2023-05-10T00:22:49.220Z,4.93
2023-05-10T00:25:16.396Z,4.40
2023-05-10T00:27:43.404Z,4.70
2023-05-10T00:30:11.841Z,4.78
2023-05-10T00:32:38.896Z,5.25
2023-05-10T00:35:06.282Z,4.68
2023-05-10T00:37:33.536Z,4.80
2023-05-10T00:40:00.593Z,4.80
2023-05-10T00:42:27.690Z,5.32
2023-05-10T00:44:55.894Z,5.28
2023-05-10T00:47:23.886Z,4.70
2023-05-10T00:49:51.484Z,5.32
2023-05-10T00:52:18.643Z,5.13
2023-05-10T00:54:45.935Z,4.40
2023-05-10T00:57:13.022Z,4.13
2023-05-10T00:59:40.122Z,4.60
2023-05-10T01:02:07.903Z,5.45
2023-05-10T01:04:36.640Z,5.57
2023-05-10T01:07:03.989Z,5.70
2023-05-10T01:09:31.185Z,4.78
2023-05-10T01:11:58.317Z,4.60
2023-05-10T01:14:26.480Z,5.00
2023-05-10T01:16:54.397Z,5.00
2023-05-10T01:19:25.214Z,4.78
2023-05-10T01:22:29.721Z,4.18
2023-05-10T01:25:35.559Z,4.63
2023-05-10T01:28:40.038Z,4.50
2023-05-10T01:31:34.675Z,4.57
2023-05-10T01:34:17.352Z,4.78
2023-05-10T01:36:58.013Z,5.15
2023-05-10T01:39:38.397Z,4.75
2023-05-10T01:42:11.869Z,5.22
2023-05-10T01:44:47.618Z,4.67
2023-05-10T01:47:34.003Z,4.43
2023-05-10T01:50:05.759Z,5.03
2023-05-10T01:52:42.189Z,4.75
2023-05-10T01:55:21.419Z,4.82
2023-05-10T01:57:52.066Z,4.57
2023-05-10T02:00:20.928Z,4.53
2023-05-10T02:02:50.842Z,4.32
2023-05-10T02:05:19.045Z,4.35
2023-05-10T02:07:47.012Z,4.50
2023-05-10T02:10:15.735Z,4.00
2023-05-10T02:12:47.060Z,4.40
2023-05-10T02:15:19.821Z,3.80
2023-05-10T02:17:48.511Z,4.05
2023-05-10T02:20:17.700Z,4.13
2023-05-10T02:22:47.148Z,4.07
2023-05-10T02:25:15.029Z,4.82
2023-05-10T02:27:44.480Z,3.40
2023-05-10T02:30:12.979Z,3.92
2023-05-10T02:32:40.874Z,3.72
2023-05-10T02:35:09.604Z,4.07
2023-05-10T02:37:38.548Z,4.05
2023-05-10T02:40:07.546Z,4.00
2023-05-10T02:42:38.138Z,4.20
2023-05-10T02:45:12.172Z,4.78
2023-05-10T02:47:39.645Z,4.50
2023-05-10T02:50:07.587Z,4.22
2023-05-10T02:52:44.532Z,4.43
2023-05-10T02:55:16.448Z,3.67
2023-05-10T02:57:52.085Z,4.07
2023-05-10T03:00:19.466Z,4.03
2023-05-10T03:02:46.464Z,3.65
2023-05-10T03:05:13.479Z,3.88
2023-05-10T03:07:40.599Z,3.80
2023-05-10T03:10:08.651Z,4.20
2023-05-10T03:12:59.782Z,4.07
2023-05-10T03:15:48.435Z,3.70
2023-05-10T03:18:45.440Z,5.88
2023-05-10T03:21:14.807Z,9.27
2023-05-10T03:23:46.952Z,6.30
2023-05-10T03:26:33.918Z,13.93
2023-05-10T03:29:09.923Z,4.20
2023-05-10T03:31:37.109Z,4.65
2023-05-10T03:34:04.307Z,4.43
2023-05-10T03:36:31.683Z,4.03
2023-05-10T03:38:59.686Z,4.37
2023-05-10T03:41:27.458Z,3.72
2023-05-10T03:43:55.089Z,3.88
2023-05-10T03:46:22.772Z,3.95
2023-05-10T03:48:49.810Z,3.70
2023-05-10T03:51:16.885Z,3.70
2023-05-10T03:53:44.107Z,7.60
2023-05-10T03:56:11.311Z,6.85
2023-05-10T03:58:38.808Z,6.03
2023-05-10T04:01:05.949Z,3.80
2023-05-10T04:03:33.085Z,3.63
2023-05-10T04:06:03.898Z,3.63
2023-05-10T04:08:31.517Z,3.78
2023-05-10T04:11:08.802Z,3.65
2023-05-10T04:13:36.387Z,3.45
2023-05-10T04:16:03.935Z,4.00
2023-05-10T04:18:31.294Z,3.60
2023-05-10T04:20:58.631Z,3.70
2023-05-10T04:23:25.680Z,3.80
2023-05-10T04:25:52.759Z,3.55
2023-05-10T04:28:19.802Z,3.97
2023-05-10T04:30:49.944Z,3.47
2023-05-10T04:33:16.991Z,3.30
2023-05-10T04:35:45.728Z,3.33
2023-05-10T04:38:12.689Z,6.65
2023-05-10T04:40:39.667Z,14.57
2023-05-10T04:43:06.731Z,3.92
2023-05-10T04:45:33.758Z,3.67
2023-05-10T04:48:00.884Z,3.65
2023-05-10T04:50:27.871Z,3.40
2023-05-10T04:52:56.705Z,3.90
2023-05-10T04:55:23.761Z,3.92
2023-05-10T04:57:50.899Z,3.60
2023-05-10T05:00:18.348Z,3.78
2023-05-10T05:02:48.981Z,4.75
2023-05-10T05:05:16.072Z,3.55
2023-05-10T05:07:43.135Z,3.55
2023-05-10T05:10:10.297Z,3.35
2023-05-10T05:12:37.226Z,3.15
2023-05-10T05:15:04.619Z,3.90
2023-05-10T05:17:32.645Z,3.45
2023-05-10T05:19:59.776Z,4.00
2023-05-10T05:22:29.149Z,3.97
2023-05-10T05:24:57.043Z,3.58
2023-05-10T05:27:25.417Z,3.78
2023-05-10T05:29:54.064Z,3.70
2023-05-10T05:32:21.385Z,3.97
2023-05-10T05:34:49.111Z,3.30
2023-05-10T05:37:17.319Z,3.60
2023-05-10T05:39:44.786Z,3.63
2023-05-10T05:42:12.805Z,4.05
2023-05-10T05:44:40.093Z,3.70
2023-05-10T05:47:07.743Z,3.88
2023-05-10T05:49:34.747Z,3.30
2023-05-10T05:52:02.471Z,3.50
2023-05-10T05:54:29.844Z,3.45
2023-05-10T05:56:59.263Z,3.58
2023-05-10T05:59:28.274Z,3.55
2023-05-10T06:01:55.678Z,3.53
2023-05-10T06:04:22.905Z,3.70
2023-05-10T06:06:49.972Z,3.50
2023-05-10T06:09:17.176Z,3.83
2023-05-10T06:11:44.316Z,3.47
2023-05-10T06:14:11.457Z,3.40
2023-05-10T06:16:38.515Z,3.38
2023-05-10T06:19:05.612Z,3.60
2023-05-10T06:21:32.697Z,3.10
2023-05-10T06:23:59.703Z,3.92
2023-05-10T06:26:26.966Z,2.85
2023-05-10T06:28:54.126Z,4.00
2023-05-10T06:31:21.218Z,3.45
2023-05-10T06:33:48.250Z,3.33
2023-05-10T06:36:15.552Z,2.70
2023-05-10T06:38:42.539Z,2.65
2023-05-10T06:41:09.662Z,2.63
2023-05-10T06:43:36.708Z,3.00
2023-05-10T06:46:03.721Z,3.13
2023-05-10T06:48:30.722Z,3.40
2023-05-10T06:50:57.726Z,3.60
2023-05-10T06:53:25.089Z,3.55
2023-05-10T06:55:52.208Z,3.40
2023-05-10T06:58:19.239Z,3.88
2023-05-10T07:00:47.865Z,3.75
2023-05-10T07:03:15.199Z,3.88
2023-05-10T07:05:42.252Z,3.60
2023-05-10T07:08:09.551Z,4.30
2023-05-10T07:10:36.901Z,3.90
2023-05-10T07:13:04.116Z,4.10
2023-05-10T07:15:31.245Z,3.80
2023-05-10T07:17:58.699Z,4.10
2023-05-10T07:20:25.955Z,3.30
2023-05-10T07:22:52.984Z,4.40
2023-05-10T07:25:20.201Z,3.42
2023-05-10T07:27:49.617Z,3.45
2023-05-10T07:30:16.989Z,3.60
2023-05-10T07:32:44.049Z,3.35
2023-05-10T07:35:11.161Z,4.00
2023-05-10T07:37:38.334Z,3.65
2023-05-10T07:40:05.878Z,3.35
2023-05-10T07:42:32.902Z,3.47
2023-05-10T07:44:59.979Z,4.07
2023-05-10T07:47:27.167Z,4.33
2023-05-10T07:49:54.284Z,3.92
2023-05-10T07:52:22.670Z,5.13
2023-05-10T07:54:50.050Z,4.55
2023-05-10T07:57:18.724Z,4.18
2023-05-10T07:59:46.398Z,4.10
2023-05-10T08:02:13.507Z,4.35
2023-05-10T08:04:40.884Z,5.25
2023-05-10T08:07:08.367Z,3.70
2023-05-10T08:09:35.532Z,4.00
2023-05-10T08:12:02.992Z,4.50
2023-05-10T08:14:31.010Z,4.85
2023-05-10T08:16:58.013Z,4.60
2023-05-10T08:19:25.142Z,5.18
2023-05-10T08:21:58.303Z,4.50
2023-05-10T08:24:25.484Z,4.13
2023-05-10T08:26:52.488Z,3.70
2023-05-10T08:29:19.454Z,4.25
2023-05-10T08:31:46.577Z,3.80
2023-05-10T08:34:13.662Z,4.07
2023-05-10T08:36:40.754Z,3.10
2023-05-10T08:39:16.242Z,5.15
2023-05-10T08:41:55.131Z,4.60
2023-05-10T08:44:22.263Z,4.00
2023-05-10T08:46:54.786Z,2.65
2023-05-10T08:49:22.789Z,3.30
2023-05-10T08:51:56.063Z,3.92
2023-05-10T08:54:24.083Z,3.20
2023-05-10T08:56:51.126Z,5.00
2023-05-10T08:59:18.282Z,4.18
2023-05-10T09:01:57.151Z,4.10
2023-05-10T09:04:24.386Z,2.30
2023-05-10T09:06:51.869Z,3.22
2023-05-10T09:09:20.658Z,2.55
2023-05-10T09:11:48.258Z,3.30
2023-05-10T09:14:16.921Z,2.30
2023-05-10T09:16:44.338Z,2.60
2023-05-10T09:19:11.779Z,2.63
2023-05-10T09:21:39.520Z,3.55
2023-05-10T09:24:08.194Z,2.85
2023-05-10T09:26:36.777Z,2.60
2023-05-10T09:29:04.318Z,2.90
2023-05-10T09:31:57.485Z,2.80
2023-05-10T09:34:35.773Z,3.08
2023-05-10T09:37:05.535Z,3.47
2023-05-10T09:39:33.565Z,3.30
2023-05-10T09:42:04.800Z,3.28
2023-05-10T09:44:33.867Z,3.00
2023-05-10T09:47:04.939Z,3.10
2023-05-10T09:49:32.502Z,3.30
2023-05-10T09:52:03.862Z,3.33
2023-05-10T09:54:31.926Z,3.50
2023-05-10T09:56:59.502Z,3.08
2023-05-10T09:59:31.494Z,3.22
2023-05-10T10:02:04.990Z,2.97
2023-05-10T10:04:41.272Z,3.40
2023-05-10T10:07:08.773Z,3.60
2023-05-10T10:09:36.789Z,3.60
2023-05-10T10:12:05.058Z,3.60
2023-05-10T10:14:32.783Z,3.58
2023-05-10T10:17:08.636Z,3.73
2023-05-10T10:19:38.189Z,3.85
2023-05-10T10:22:07.035Z,4.60
2023-05-10T10:24:34.492Z,4.55
2023-05-10T10:27:21.964Z,3.53
2023-05-10T10:30:01.833Z,4.13
2023-05-10T10:32:50.578Z,3.60
2023-05-10T10:35:21.401Z,3.78
2023-05-10T10:37:51.330Z,3.40
2023-05-10T10:40:36.943Z,3.40
2023-05-10T10:43:28.099Z,3.53
2023-05-10T10:46:16.613Z,4.45
2023-05-10T10:49:11.637Z,3.60
2023-05-10T10:51:42.079Z,3.80
2023-05-10T10:54:13.143Z,4.03
2023-05-10T10:56:40.380Z,3.97
2023-05-10T10:59:10.399Z,3.80
2023-05-10T11:01:37.793Z,3.47
2023-05-10T11:04:05.370Z,3.38
2023-05-10T11:06:33.687Z,3.40
2023-05-10T11:09:13.591Z,3.90
2023-05-10T11:11:56.581Z,3.78
2023-05-10T11:14:24.245Z,3.60
2023-05-10T11:16:51.908Z,3.90
2023-05-10T11:19:20.695Z,4.35
2023-05-10T11:22:19.234Z,3.90
2023-05-10T11:24:59.830Z,3.20
2023-05-10T11:27:27.552Z,3.70
2023-05-10T11:29:55.174Z,3.30
2023-05-10T11:32:23.330Z,3.78
2023-05-10T11:34:50.634Z,3.80
2023-05-10T11:37:19.737Z,3.67
2023-05-10T11:39:48.752Z,3.08
2023-05-10T11:42:16.289Z,3.40
2023-05-10T11:44:45.510Z,3.58
2023-05-10T11:47:13.522Z,3.70
2023-05-10T11:49:44.524Z,3.28
2023-05-10T11:52:14.644Z,3.60
2023-05-10T11:54:57.574Z,2.90
2023-05-10T11:57:28.114Z,3.15
2023-05-10T11:59:56.344Z,3.50
2023-05-10T12:02:23.921Z,3.00
2023-05-10T12:04:52.293Z,3.92
2023-05-10T12:07:20.035Z,3.88
2023-05-10T12:10:08.121Z,3.95
2023-05-10T12:12:49.336Z,3.60
2023-05-10T12:15:23.648Z,3.67
2023-05-10T12:17:52.889Z,3.60
2023-05-10T12:20:25.465Z,3.38
2023-05-10T12:22:55.544Z,3.33
2023-05-10T12:25:24.756Z,3.10
2023-05-10T12:30:43.027Z,3.08
2023-05-10T12:33:12.672Z,3.35
2023-05-10T12:36:01.138Z,3.58
2023-05-10T12:38:39.565Z,3.17
2023-05-10T12:41:08.967Z,3.25
2023-05-10T12:43:37.257Z,3.30
2023-05-10T12:46:16.193Z,3.15
2023-05-10T12:48:44.998Z,3.20
2023-05-10T12:51:18.389Z,2.90
2023-05-10T12:53:49.733Z,2.90
2023-05-10T12:56:17.018Z,2.70
2023-05-10T12:58:49.195Z,2.90
2023-05-10T13:01:16.568Z,2.80
2023-05-10T13:03:44.397Z,2.65
2023-05-10T13:06:11.421Z,2.85
2023-05-10T13:08:38.383Z,2.78
2023-05-10T13:11:05.619Z,3.08
2023-05-10T13:13:32.718Z,2.75
2023-05-10T13:15:59.728Z,2.90
2023-05-10T13:18:27.770Z,3.13
2023-05-10T13:20:55.396Z,3.30
2023-05-10T13:23:22.473Z,3.20
2023-05-10T13:25:49.481Z,3.33
2023-05-10T13:28:16.468Z,3.63
2023-05-10T13:30:43.651Z,2.95
2023-05-10T13:33:11.204Z,3.25
2023-05-10T13:35:38.246Z,3.58
2023-05-10T13:38:05.270Z,3.33
2023-05-10T13:40:32.396Z,3.00
2023-05-10T13:42:59.488Z,3.28
2023-05-10T13:45:26.601Z,2.85
2023-05-10T13:47:53.592Z,3.53
2023-05-10T13:50:20.908Z,3.30
2023-05-10T13:52:47.911Z,3.42
2023-05-10T13:55:15.485Z,2.80
2023-05-10T13:57:43.877Z,2.97
2023-05-10T14:00:11.438Z,3.13
2023-05-10T14:02:38.514Z,3.25
2023-05-10T14:05:05.996Z,3.97
2023-05-10T14:07:32.978Z,3.65
2023-05-10T14:10:00.038Z,3.30
2023-05-10T14:12:27.112Z,3.40
2023-05-10T14:14:54.057Z,3.63
2023-05-10T14:17:21.016Z,3.40
2023-05-10T14:19:48.171Z,3.22
2023-05-10T14:22:15.230Z,3.25
2023-05-10T14:24:42.424Z,3.80
2023-05-10T14:27:09.485Z,2.85
2023-05-10T14:29:36.971Z,3.35
2023-05-10T14:32:04.039Z,3.22
2023-05-10T14:34:31.039Z,2.80
2023-05-10T14:36:57.975Z,3.20
2023-05-10T14:39:24.997Z,3.35
2023-05-10T14:41:53.286Z,3.08
2023-05-10T14:44:20.598Z,2.92
2023-05-10T14:46:48.329Z,3.70
2023-05-10T14:49:15.508Z,4.15
2023-05-10T14:51:42.605Z,4.03
2023-05-10T14:54:09.556Z,3.97
2023-05-10T14:56:38.370Z,3.63
2023-05-10T14:59:05.398Z,3.72
2023-05-10T15:01:34.054Z,3.60
2023-05-10T15:04:01.804Z,3.45
2023-05-10T15:06:34.048Z,4.95
2023-05-10T15:09:02.258Z,4.18
2023-05-10T15:11:30.075Z,4.40
2023-05-10T15:13:57.044Z,4.47
2023-05-10T15:16:24.144Z,4.70
2023-05-10T15:18:51.437Z,4.45
2023-05-10T15:21:18.489Z,4.40
2023-05-10T15:23:45.583Z,4.00
2023-05-10T15:26:12.680Z,4.32
2023-05-10T15:28:39.733Z,3.90
2023-05-10T15:31:06.959Z,3.45
2023-05-10T15:33:34.092Z,5.40
2023-05-10T15:36:01.081Z,4.32
2023-05-10T15:38:28.167Z,4.50
2023-05-10T15:40:58.521Z,4.53
2023-05-10T15:43:25.726Z,4.95
2023-05-10T15:45:52.737Z,5.68
2023-05-10T15:48:19.792Z,5.38
2023-05-10T15:50:46.808Z,7.07
2023-05-10T15:53:13.929Z,4.00
2023-05-10T15:55:41.246Z,6.82
2023-05-10T15:58:08.329Z,6.30
2023-05-10T16:00:35.966Z,3.75
2023-05-10T16:03:03.274Z,3.67
2023-05-10T16:05:33.623Z,3.70
2023-05-10T16:08:03.170Z,3.70
2023-05-10T16:10:33.410Z,3.55
2023-05-10T16:13:00.740Z,3.78
2023-05-10T16:15:28.019Z,4.90
2023-05-10T16:17:55.417Z,3.22
2023-05-10T16:20:22.511Z,3.63
2023-05-10T16:22:49.763Z,3.55
2023-05-10T16:25:17.301Z,3.30
2023-05-10T16:27:44.686Z,3.50
2023-05-10T16:30:12.056Z,3.50
2023-05-10T16:32:39.116Z,3.80
2023-05-10T16:35:06.850Z,3.42
2023-05-10T16:37:33.900Z,3.20
2023-05-10T16:40:00.940Z,3.83
2023-05-10T16:42:28.276Z,3.88
2023-05-10T16:44:55.348Z,3.35
2023-05-10T16:47:22.401Z,2.90
2023-05-10T16:49:49.478Z,3.30
2023-05-10T16:52:16.690Z,3.30
2023-05-10T16:54:43.725Z,3.20
2023-05-10T16:57:10.888Z,4.18
2023-05-10T16:59:38.435Z,3.50
2023-05-10T17:02:05.575Z,4.22
2023-05-10T17:04:32.675Z,4.28
2023-05-10T17:06:59.631Z,3.53
2023-05-10T17:09:26.782Z,3.65
2023-05-10T17:11:53.734Z,3.97
2023-05-10T17:14:20.757Z,4.28
2023-05-10T17:16:48.639Z,3.50
2023-05-10T17:19:15.759Z,4.32
2023-05-10T17:21:42.819Z,4.18
2023-05-10T17:24:09.948Z,4.30
2023-05-10T17:26:37.324Z,4.35
2023-05-10T17:29:04.361Z,4.20
2023-05-10T17:31:32.716Z,3.88
2023-05-10T17:34:01.051Z,4.95
2023-05-10T17:36:29.530Z,8.90
2023-05-10T17:38:56.580Z,5.40
2023-05-10T17:41:23.650Z,4.97
2023-05-10T17:43:50.757Z,4.70
2023-05-10T17:46:23.912Z,4.50
2023-05-10T17:48:50.985Z,4.68
2023-05-10T17:51:19.163Z,4.50
2023-05-10T17:53:46.216Z,4.40
2023-05-10T17:56:13.577Z,4.90
2023-05-10T17:58:40.617Z,4.80
2023-05-10T18:01:07.780Z,4.55
2023-05-10T18:03:36.150Z,4.10
2023-05-10T18:06:04.520Z,5.15
2023-05-10T18:08:31.855Z,4.50
2023-05-10T18:11:01.345Z,4.13
2023-05-10T18:13:29.247Z,4.80
2023-05-10T18:15:56.429Z,4.63
2023-05-10T18:18:23.476Z,4.88
2023-05-10T18:20:56.606Z,4.95
2023-05-10T18:23:24.742Z,4.97
2023-05-10T18:25:52.213Z,4.53
2023-05-10T18:28:19.267Z,4.75
2023-05-10T18:30:46.420Z,4.53
2023-05-10T18:33:13.790Z,4.50
2023-05-10T18:35:41.146Z,5.10
2023-05-10T18:38:09.928Z,4.82
2023-05-10T18:40:37.211Z,4.75
2023-05-10T18:43:04.428Z,4.75
2023-05-10T18:45:31.801Z,4.57
2023-05-10T18:47:59.008Z,5.10
2023-05-10T18:50:26.108Z,5.43
2023-05-10T18:52:54.173Z,5.53
2023-05-10T18:55:21.183Z,6.47
2023-05-10T18:57:48.371Z,4.82
2023-05-10T19:00:15.565Z,3.88
2023-05-10T19:02:43.092Z,4.20
2023-05-10T19:05:10.449Z,4.57
2023-05-10T19:07:39.576Z,4.25
2023-05-10T19:10:07.164Z,4.70
2023-05-10T19:12:34.326Z,4.65
2023-05-10T19:15:01.335Z,3.63
2023-05-10T19:17:28.423Z,4.60
2023-05-10T19:19:56.997Z,3.85
2023-05-10T19:22:35.977Z,5.43
2023-05-10T19:25:11.674Z,4.88
2023-05-10T19:27:38.811Z,4.30
2023-05-10T19:30:07.438Z,4.55
2023-05-10T19:32:35.002Z,4.03
2023-05-10T19:35:02.085Z,3.90
2023-05-10T19:37:33.528Z,4.50
2023-05-10T19:40:00.477Z,11.43
2023-05-10T19:42:27.552Z,6.68
2023-05-10T19:44:55.065Z,5.57
2023-05-10T19:47:22.017Z,4.10
2023-05-10T19:49:49.061Z,4.43
2023-05-10T19:52:16.266Z,4.65
2023-05-10T19:54:44.951Z,4.30
2023-05-10T19:57:13.444Z,4.35
2023-05-10T19:59:41.251Z,5.00
2023-05-10T20:02:08.320Z,5.32
2023-05-10T20:04:35.481Z,4.70
2023-05-10T20:07:02.535Z,4.97
2023-05-10T20:09:29.471Z,5.53
2023-05-10T20:11:56.698Z,5.85
2023-05-10T20:14:23.672Z,5.43
2023-05-10T20:16:50.707Z,5.88
2023-05-10T20:19:17.737Z,5.20
2023-05-10T20:21:44.747Z,6.00
2023-05-10T20:24:11.917Z,6.10
2023-05-10T20:26:38.921Z,5.30
2023-05-10T20:29:06.133Z,5.60
2023-05-10T20:31:33.432Z,4.90
2023-05-10T20:34:00.601Z,5.22
2023-05-10T20:36:27.715Z,8.23
2023-05-10T20:38:54.695Z,5.43
2023-05-10T20:41:21.642Z,5.28
2023-05-10T20:43:48.671Z,6.18
2023-05-10T20:46:15.939Z,6.00
2023-05-10T20:48:42.969Z,6.55
2023-05-10T20:51:10.133Z,6.95
2023-05-10T20:53:37.199Z,6.78
2023-05-10T20:56:04.187Z,6.43
2023-05-10T20:58:31.117Z,6.38
2023-05-10T21:00:58.110Z,5.90
2023-05-10T21:03:25.216Z,6.28
2023-05-10T21:05:53.640Z,5.43
2023-05-10T21:08:20.962Z,5.47
2023-05-10T21:10:48.097Z,5.45
2023-05-10T21:13:15.434Z,5.80
2023-05-10T21:15:43.456Z,6.35
2023-05-10T21:18:10.495Z,5.22
2023-05-10T21:20:37.490Z,6.38
2023-05-10T21:23:04.539Z,5.40
2023-05-10T21:25:31.613Z,5.57
2023-05-10T21:27:58.679Z,7.10
2023-05-10T21:30:25.852Z,7.45
2023-05-10T21:32:54.018Z,9.55
2023-05-10T21:35:21.137Z,8.45
2023-05-10T21:37:48.154Z,8.52
2023-05-10T21:40:15.735Z,9.43
2023-05-10T21:42:43.061Z,9.25
2023-05-10T21:45:10.430Z,11.10
2023-05-10T21:47:37.508Z,10.70
2023-05-10T21:50:04.740Z,10.45
2023-05-10T21:52:31.719Z,13.63
2023-05-10T21:54:58.929Z,13.65
2023-05-10T21:57:26.027Z,13.30
2023-05-10T21:59:53.064Z,13.38
2023-05-10T22:02:20.081Z,14.30
2023-05-10T22:04:47.162Z,13.90
2023-05-10T22:07:16.611Z,11.68
2023-05-10T22:09:44.028Z,11.95
2023-05-10T22:12:11.621Z,11.23
2023-05-10T22:14:38.767Z,10.52
2023-05-10T22:17:05.985Z,11.10
2023-05-10T22:19:33.216Z,11.05
2023-05-10T22:22:00.229Z,10.50
2023-05-10T22:24:27.408Z,10.95
2023-05-10T22:26:56.209Z,10.63
2023-05-10T22:29:23.979Z,10.07
2023-05-10T22:31:51.309Z,9.95
2023-05-10T22:34:18.916Z,9.80
2023-05-10T22:36:46.735Z,11.02
2023-05-10T22:39:13.693Z,10.30
2023-05-10T22:41:40.666Z,9.23
2023-05-10T22:44:08.371Z,9.50
2023-05-10T22:46:37.160Z,8.32
2023-05-10T22:49:04.322Z,9.52
2023-05-10T22:51:31.370Z,9.65
2023-05-10T22:53:58.367Z,8.63
2023-05-10T22:56:25.790Z,9.38
2023-05-10T22:58:52.771Z,8.98
2023-05-10T23:01:20.409Z,9.43
2023-05-10T23:03:47.450Z,9.63
2023-05-10T23:06:14.525Z,10.63
2023-05-10T23:08:41.456Z,8.93
2023-05-10T23:11:08.457Z,8.52
2023-05-10T23:13:35.540Z,9.77
2023-05-10T23:16:06.760Z,9.17
2023-05-10T23:18:33.963Z,7.82
2023-05-10T23:21:01.143Z,8.80
2023-05-10T23:23:28.216Z,9.35
2023-05-10T23:25:55.249Z,8.63
2023-05-10T23:28:22.244Z,8.97
2023-05-10T23:30:55.803Z,8.75
2023-05-10T23:33:23.438Z,8.23
2023-05-10T23:35:50.790Z,8.18
2023-05-10T23:38:17.881Z,8.30
2023-05-10T23:40:49.665Z,7.40
2023-05-10T23:43:17.861Z,8.07
2023-05-10T23:45:53.770Z,7.53
2023-05-10T23:48:23.984Z,7.82
2023-05-10T23:50:52.029Z,8.50
2023-05-10T23:53:19.100Z,8.53
2023-05-10T23:55:46.156Z,7.32
2023-05-10T23:58:13.199Z,7.28
